createdAt,value
2022-12-04T00:01:10.200Z,23.47
2022-12-04T00:03:37.678Z,23.43
2022-12-04T00:06:05.651Z,24.50
2022-12-04T00:08:32.327Z,20.97
2022-12-04T00:10:59.145Z,21.20
2022-12-04T00:13:26.240Z,21.30
2022-12-04T00:15:53.689Z,20.20
2022-12-04T00:18:20.435Z,22.90
2022-12-04T00:20:47.998Z,19.17
2022-12-04T00:23:14.805Z,19.23
2022-12-04T00:25:41.698Z,21.97
2022-12-04T00:28:08.941Z,24.63
2022-12-04T00:30:35.532Z,21.43
2022-12-04T00:33:02.086Z,21.30
2022-12-04T00:35:28.695Z,18.57
2022-12-04T00:37:55.276Z,24.60
2022-12-04T00:40:21.857Z,20.80
2022-12-04T00:42:48.451Z,21.87
2022-12-04T00:45:15.168Z,20.47
2022-12-04T00:47:41.854Z,19.97
2022-12-04T00:50:08.985Z,23.53
2022-12-04T00:52:35.570Z,21.13
2022-12-04T00:55:02.152Z,20.53
2022-12-04T00:57:28.764Z,23.23
2022-12-04T00:59:55.703Z,22.10
2022-12-04T01:02:22.418Z,21.57
2022-12-04T01:04:49.040Z,24.70
2022-12-04T01:07:15.632Z,22.67
2022-12-04T01:09:42.234Z,22.93
2022-12-04T01:12:08.865Z,24.17
2022-12-04T01:14:35.504Z,21.13
2022-12-04T01:17:02.186Z,22.97
2022-12-04T01:19:28.853Z,21.90
2022-12-04T01:21:55.583Z,24.57
2022-12-04T01:24:22.215Z,22.27
2022-12-04T01:26:48.812Z,22.63
2022-12-04T01:29:15.391Z,20.47
2022-12-04T01:31:42.014Z,23.30
2022-12-04T01:34:08.704Z,22.53
2022-12-04T01:36:35.261Z,22.33
2022-12-04T01:39:01.934Z,22.73
2022-12-04T01:41:30.561Z,20.53
2022-12-04T01:44:16.650Z,22.83
2022-12-04T01:47:03.455Z,22.40
2022-12-04T01:49:35.750Z,22.97
2022-12-04T01:52:07.406Z,20.77
2022-12-04T01:54:42.184Z,22.63
2022-12-04T01:57:17.660Z,20.70
2022-12-04T02:00:08.949Z,21.47
2022-12-04T02:02:39.396Z,23.17
2022-12-04T02:05:09.383Z,23.90
2022-12-04T02:07:38.410Z,21.97
2022-12-04T02:10:08.693Z,22.93
2022-12-04T02:12:51.579Z,21.37
2022-12-04T02:15:23.759Z,23.17
2022-12-04T02:18:01.496Z,20.23
2022-12-04T02:20:42.373Z,26.07
2022-12-04T02:23:28.614Z,21.47
2022-12-04T02:26:23.290Z,22.20
2022-12-04T02:28:51.767Z,20.33
2022-12-04T02:31:30.706Z,22.13
2022-12-04T02:34:09.650Z,21.90
2022-12-04T02:36:45.453Z,20.73
2022-12-04T02:39:27.168Z,20.00
2022-12-04T02:42:04.204Z,18.90
2022-12-04T02:44:34.150Z,20.20
2022-12-04T02:47:04.728Z,20.30
2022-12-04T02:49:37.962Z,20.63
2022-12-04T02:52:11.498Z,21.53
2022-12-04T02:54:43.479Z,20.63
2022-12-04T02:57:16.002Z,20.30
2022-12-04T02:59:45.227Z,22.90
2022-12-04T03:02:46.366Z,21.00
2022-12-04T03:05:18.497Z,19.93
2022-12-04T03:07:50.990Z,20.77
2022-12-04T03:10:23.809Z,21.83
2022-12-04T03:12:53.250Z,23.50
2022-12-04T03:15:37.760Z,19.53
2022-12-04T03:18:11.381Z,21.47
2022-12-04T03:20:39.218Z,20.23
2022-12-04T03:23:24.161Z,20.83
2022-12-04T03:26:01.179Z,20.27
2022-12-04T03:28:39.389Z,21.77
2022-12-04T03:31:09.450Z,19.67
2022-12-04T03:33:42.607Z,19.83
2022-12-04T03:36:13.800Z,21.03
2022-12-04T03:38:46.350Z,19.43
2022-12-04T03:41:17.856Z,19.13
2022-12-04T03:43:50.817Z,21.03
2022-12-04T03:46:38.762Z,17.77
2022-12-04T03:49:31.329Z,19.60
2022-12-04T03:52:00.763Z,18.77
2022-12-04T03:54:32.749Z,19.93
2022-12-04T03:57:08.716Z,19.30
2022-12-04T04:00:00.293Z,18.60
2022-12-04T04:02:33.370Z,19.70
2022-12-04T04:05:02.686Z,16.37
2022-12-04T04:07:35.832Z,20.20
2022-12-04T04:10:13.506Z,18.00
2022-12-04T04:13:11.108Z,17.83
2022-12-04T04:16:00.952Z,17.50
2022-12-04T04:18:47.224Z,16.70
2022-12-04T04:21:38.580Z,19.53
2022-12-04T04:24:14.309Z,19.47
2022-12-04T04:26:46.674Z,18.60
2022-12-04T04:29:13.906Z,18.93
2022-12-04T04:32:14.120Z,14.67
2022-12-04T04:35:03.751Z,16.50
2022-12-04T04:37:58.108Z,19.30
2022-12-04T04:40:51.273Z,15.93
2022-12-04T04:43:23.833Z,18.77
2022-12-04T04:46:08.462Z,18.03
2022-12-04T04:48:41.253Z,20.90
2022-12-04T04:51:08.414Z,18.50
2022-12-04T04:53:45.469Z,19.50
2022-12-04T04:56:12.450Z,19.27
2022-12-04T04:58:39.115Z,18.13
2022-12-04T05:01:11.066Z,17.13
2022-12-04T05:03:38.278Z,17.60
2022-12-04T05:06:04.995Z,17.07
2022-12-04T05:08:31.677Z,18.70
2022-12-04T05:10:58.358Z,19.73
2022-12-04T05:13:25.482Z,19.23
2022-12-04T05:15:59.032Z,19.60
2022-12-04T05:18:26.064Z,16.07
2022-12-04T05:20:53.113Z,17.63
2022-12-04T05:23:20.065Z,18.73
2022-12-04T05:25:46.643Z,18.97
2022-12-04T05:28:13.549Z,19.37
2022-12-04T05:30:40.261Z,17.87
2022-12-04T05:33:06.893Z,16.10
2022-12-04T05:35:33.614Z,17.07
2022-12-04T05:38:00.203Z,17.37
2022-12-04T05:40:26.806Z,17.27
2022-12-04T05:42:53.402Z,18.97
2022-12-04T05:45:19.973Z,18.50
2022-12-04T05:47:46.621Z,16.37
2022-12-04T05:50:13.737Z,18.40
2022-12-04T05:52:40.318Z,15.83
2022-12-04T05:55:07.255Z,17.57
2022-12-04T05:57:33.884Z,17.73
2022-12-04T06:00:00.493Z,16.93
2022-12-04T06:02:27.224Z,18.37
2022-12-04T06:04:53.815Z,19.80
2022-12-04T06:07:20.446Z,18.83
2022-12-04T06:09:47.008Z,17.50
2022-12-04T06:12:13.585Z,18.90
2022-12-04T06:14:40.231Z,17.77
2022-12-04T06:17:07.362Z,17.63
2022-12-04T06:19:34.002Z,18.07
2022-12-04T06:22:00.582Z,18.70
2022-12-04T06:24:27.287Z,18.13
2022-12-04T06:29:45.751Z,20.73
2022-12-04T06:32:16.456Z,19.83
2022-12-04T06:34:52.972Z,19.80
2022-12-04T06:37:20.899Z,17.87
2022-12-04T06:39:47.530Z,21.97
2022-12-04T06:42:14.151Z,22.47
2022-12-04T06:44:40.736Z,23.13
2022-12-04T06:47:08.342Z,19.43
2022-12-04T06:49:36.171Z,21.10
2022-12-04T06:52:02.876Z,19.93
2022-12-04T06:54:29.471Z,22.63
2022-12-04T06:56:56.018Z,21.13
2022-12-04T06:59:22.610Z,19.50
2022-12-04T07:01:49.333Z,18.07
2022-12-04T07:04:15.959Z,21.43
2022-12-04T07:06:42.601Z,21.27
2022-12-04T07:09:16.641Z,18.83
2022-12-04T07:11:44.297Z,16.57
2022-12-04T07:14:12.441Z,19.60
2022-12-04T07:16:42.037Z,16.00
2022-12-04T07:19:13.775Z,16.23
2022-12-04T07:21:41.338Z,16.93
2022-12-04T07:24:08.630Z,21.53
2022-12-04T07:26:35.472Z,17.87
2022-12-04T07:29:02.179Z,20.27
2022-12-04T07:31:29.988Z,19.27
2022-12-04T07:33:57.645Z,21.13
2022-12-04T07:36:25.603Z,20.87
2022-12-04T07:38:52.761Z,21.37
2022-12-04T07:41:19.635Z,22.03
2022-12-04T07:43:46.546Z,22.40
2022-12-04T07:46:19.327Z,19.70
2022-12-04T07:48:46.358Z,22.57
2022-12-04T07:51:14.419Z,19.50
2022-12-04T07:53:41.385Z,24.73
2022-12-04T07:56:09.692Z,24.03
2022-12-04T07:58:36.512Z,22.47
2022-12-04T08:01:23.277Z,25.00
2022-12-04T08:03:52.402Z,21.40
2022-12-04T08:06:21.308Z,20.40
2022-12-04T08:08:48.942Z,21.17
2022-12-04T08:11:19.526Z,22.53
2022-12-04T08:13:46.227Z,23.20
2022-12-04T08:16:14.199Z,21.63
2022-12-04T08:18:42.660Z,21.07
2022-12-04T08:21:11.803Z,20.07
2022-12-04T08:23:39.897Z,23.70
2022-12-04T08:26:07.877Z,22.07
2022-12-04T08:28:35.524Z,21.07
2022-12-04T08:31:13.456Z,21.27
2022-12-04T08:33:41.267Z,20.17
2022-12-04T08:36:10.392Z,21.53
2022-12-04T08:38:37.293Z,22.27
2022-12-04T08:41:06.094Z,22.90
2022-12-04T08:43:32.871Z,20.13
2022-12-04T08:46:01.717Z,20.07
2022-12-04T08:48:28.596Z,19.80
2022-12-04T08:50:56.044Z,21.80
2022-12-04T08:53:23.429Z,23.63
2022-12-04T08:55:50.698Z,23.93
2022-12-04T08:58:17.780Z,22.57
2022-12-04T09:00:44.770Z,21.50
2022-12-04T09:03:16.691Z,22.17
2022-12-04T09:05:45.909Z,20.47
2022-12-04T09:08:14.204Z,20.03
2022-12-04T09:10:41.182Z,20.93
2022-12-04T09:13:08.472Z,20.10
2022-12-04T09:15:39.104Z,19.90
2022-12-04T09:18:06.158Z,21.83
2022-12-04T09:20:32.813Z,19.87
2022-12-04T09:23:04.279Z,21.23
2022-12-04T09:25:34.669Z,20.90
2022-12-04T09:28:01.233Z,20.20
2022-12-04T09:30:27.926Z,22.67
2022-12-04T09:32:54.544Z,18.60
2022-12-04T09:35:21.134Z,22.37
2022-12-04T09:37:47.686Z,21.23
2022-12-04T09:40:33.458Z,22.83
2022-12-04T09:43:39.029Z,18.07
2022-12-04T09:46:15.078Z,17.83
2022-12-04T09:48:44.371Z,21.30
2022-12-04T09:51:18.641Z,20.90
2022-12-04T09:53:52.026Z,20.80
2022-12-04T09:56:20.858Z,18.70
2022-12-04T09:58:52.056Z,18.63
2022-12-04T10:01:35.275Z,17.83
2022-12-04T10:04:05.939Z,23.23
2022-12-04T10:06:44.139Z,18.80
2022-12-04T10:09:31.659Z,18.37
2022-12-04T10:12:19.888Z,19.67
2022-12-04T10:14:46.454Z,20.83
2022-12-04T10:17:32.991Z,18.93
2022-12-04T10:20:11.703Z,17.10
2022-12-04T10:22:38.262Z,20.57
2022-12-04T10:25:22.411Z,17.17
2022-12-04T10:27:55.095Z,18.80
2022-12-04T10:30:28.600Z,18.50
2022-12-04T10:33:04.945Z,18.63
2022-12-04T10:35:35.011Z,19.23
2022-12-04T10:38:10.564Z,17.10
2022-12-04T10:41:21.867Z,17.43
2022-12-04T10:43:50.081Z,17.23
2022-12-04T10:46:24.874Z,22.80
2022-12-04T10:49:04.727Z,19.07
2022-12-04T10:51:38.749Z,19.27
2022-12-04T10:54:18.672Z,19.00
2022-12-04T10:57:00.033Z,19.90
2022-12-04T10:59:27.955Z,20.47
2022-12-04T11:02:07.307Z,20.47
2022-12-04T11:04:35.621Z,19.00
2022-12-04T11:07:07.019Z,19.17
2022-12-04T11:09:34.295Z,21.23
2022-12-04T11:12:18.937Z,21.17
2022-12-04T11:14:47.381Z,17.53
2022-12-04T11:17:18.365Z,22.33
2022-12-04T11:19:47.282Z,23.60
2022-12-04T11:22:18.009Z,20.90
2022-12-04T11:24:52.881Z,21.77
2022-12-04T11:27:24.666Z,23.40
2022-12-04T11:29:51.913Z,20.03
2022-12-04T11:32:25.113Z,25.17
2022-12-04T11:34:57.194Z,23.07
2022-12-04T11:37:33.727Z,23.17
2022-12-04T11:40:03.650Z,20.87
2022-12-04T11:42:31.813Z,21.17
2022-12-04T11:45:23.039Z,19.20
2022-12-04T11:47:55.578Z,24.40
2022-12-04T11:50:30.071Z,21.27
2022-12-04T11:52:59.337Z,24.80
2022-12-04T11:55:42.017Z,27.60
2022-12-04T11:58:38.339Z,20.23
2022-12-04T12:01:44.161Z,24.77
2022-12-04T12:04:45.534Z,23.57
2022-12-04T12:07:23.474Z,19.03
2022-12-04T12:10:05.013Z,29.57
2022-12-04T12:12:53.330Z,25.73
2022-12-04T12:15:57.285Z,29.13
2022-12-04T12:18:48.595Z,24.50
2022-12-04T12:21:39.451Z,24.83
2022-12-04T12:24:18.406Z,32.83
2022-12-04T12:27:22.561Z,37.27
2022-12-04T12:30:04.459Z,26.73
2022-12-04T12:32:38.102Z,26.87
2022-12-04T12:35:19.292Z,27.70
2022-12-04T12:37:55.319Z,36.13
2022-12-04T12:40:41.114Z,27.63
2022-12-04T12:43:16.214Z,24.90
2022-12-04T12:45:55.267Z,41.70
2022-12-04T12:48:24.930Z,38.33
2022-12-04T12:51:29.665Z,24.20
2022-12-04T12:54:03.720Z,24.53
2022-12-04T12:56:38.345Z,23.00
2022-12-04T12:59:10.270Z,28.00
2022-12-04T13:01:41.673Z,33.00
2022-12-04T13:04:20.575Z,25.37
2022-12-04T13:06:52.948Z,33.77
2022-12-04T13:09:27.526Z,40.60
2022-12-04T13:12:01.725Z,39.00
2022-12-04T13:14:28.340Z,47.27
2022-12-04T13:17:04.929Z,37.63
2022-12-04T13:19:43.504Z,37.50
2022-12-04T13:22:41.163Z,33.83
2022-12-04T13:25:31.471Z,31.73
2022-12-04T13:28:10.813Z,31.13
2022-12-04T13:31:01.417Z,37.60
2022-12-04T13:33:30.630Z,27.67
2022-12-04T13:36:17.787Z,29.63
2022-12-04T13:39:18.071Z,24.57
2022-12-04T13:41:44.751Z,30.77
2022-12-04T13:44:14.616Z,24.07
2022-12-04T13:46:52.678Z,25.83
2022-12-04T13:49:25.578Z,26.93
2022-12-04T13:51:53.659Z,24.00
2022-12-04T13:54:22.234Z,42.23
2022-12-04T13:56:52.681Z,47.63
2022-12-04T13:59:28.444Z,23.63
2022-12-04T14:02:01.288Z,40.33
2022-12-04T14:04:47.153Z,27.70
2022-12-04T14:07:42.951Z,37.80
2022-12-04T14:10:15.376Z,31.80
2022-12-04T14:12:49.930Z,28.67
2022-12-04T14:15:24.618Z,30.33
2022-12-04T14:18:01.534Z,27.13
2022-12-04T14:20:30.790Z,28.37
2022-12-04T14:23:07.753Z,24.27
2022-12-04T14:25:39.773Z,34.70
2022-12-04T14:28:31.306Z,23.83
2022-12-04T14:31:18.149Z,29.00
2022-12-04T14:33:49.455Z,29.20
2022-12-04T14:36:24.894Z,25.57
2022-12-04T14:39:03.337Z,22.70
2022-12-04T14:41:30.407Z,21.50
2022-12-04T14:43:57.522Z,29.77
2022-12-04T14:46:42.973Z,25.43
2022-12-04T14:49:28.524Z,35.60
2022-12-04T14:52:24.067Z,43.93
2022-12-04T14:55:07.472Z,35.67
2022-12-04T14:57:55.466Z,31.93
2022-12-04T15:00:24.210Z,29.20
2022-12-04T15:02:59.694Z,25.57
2022-12-04T15:05:29.744Z,38.10
2022-12-04T15:08:02.227Z,28.93
2022-12-04T15:10:49.977Z,29.23
2022-12-04T15:13:34.808Z,25.80
2022-12-04T15:16:22.811Z,24.10
2022-12-04T15:18:57.725Z,25.07
2022-12-04T15:21:33.449Z,28.13
2022-12-04T15:24:00.056Z,24.10
2022-12-04T15:26:26.944Z,23.80
2022-12-04T15:29:03.191Z,27.83
2022-12-04T15:31:46.920Z,27.77
2022-12-04T15:34:17.338Z,23.33
2022-12-04T15:36:51.600Z,25.80
2022-12-04T15:39:29.263Z,24.80
2022-12-04T15:42:24.710Z,23.10
2022-12-04T15:45:01.700Z,21.93
2022-12-04T15:47:50.742Z,28.07
2022-12-04T15:50:17.260Z,25.03
2022-12-04T15:52:57.176Z,25.33
2022-12-04T15:55:25.393Z,24.27
2022-12-04T15:58:02.118Z,21.83
2022-12-04T16:00:32.743Z,31.27
2022-12-04T16:03:00.517Z,34.57
2022-12-04T16:05:34.859Z,28.37
2022-12-04T16:08:23.309Z,26.47
2022-12-04T16:10:57.689Z,44.03
2022-12-04T16:13:32.716Z,33.17
2022-12-04T16:16:00.170Z,25.80
2022-12-04T16:18:28.403Z,37.27
2022-12-04T16:20:55.620Z,33.23
2022-12-04T16:23:26.693Z,41.33
2022-12-04T16:25:53.875Z,35.30
2022-12-04T16:28:20.884Z,33.57
2022-12-04T16:30:47.763Z,38.17
2022-12-04T16:33:15.800Z,32.17
2022-12-04T16:35:42.980Z,43.17
2022-12-04T16:38:15.888Z,33.93
2022-12-04T16:40:44.727Z,33.10
2022-12-04T16:43:13.913Z,37.90
2022-12-04T16:45:46.666Z,36.00
2022-12-04T16:48:14.014Z,24.97
2022-12-04T16:50:41.164Z,30.20
2022-12-04T16:53:07.764Z,33.80
2022-12-04T16:55:38.082Z,41.53
2022-12-04T16:58:06.202Z,33.63
2022-12-04T17:00:32.967Z,45.27
2022-12-04T17:03:01.741Z,34.43
2022-12-04T17:05:30.004Z,35.20
2022-12-04T17:07:56.641Z,43.27
2022-12-04T17:10:24.532Z,27.37
2022-12-04T17:12:55.055Z,27.73
2022-12-04T17:15:22.550Z,32.10
2022-12-04T17:17:49.180Z,26.37
2022-12-04T17:20:18.255Z,30.70
2022-12-04T17:22:45.065Z,34.83
2022-12-04T17:25:12.678Z,26.20
2022-12-04T17:27:39.463Z,22.13
2022-12-04T17:30:07.960Z,36.87
2022-12-04T17:32:35.003Z,23.10
2022-12-04T17:35:02.789Z,32.50
2022-12-04T17:37:29.403Z,30.43
2022-12-04T17:39:56.059Z,29.53
2022-12-04T17:42:22.623Z,26.17
2022-12-04T17:44:49.419Z,34.97
2022-12-04T17:47:16.119Z,26.50
2022-12-04T17:49:43.200Z,23.27
2022-12-04T17:52:10.109Z,23.47
2022-12-04T17:54:36.794Z,27.37
2022-12-04T17:57:03.506Z,22.43
2022-12-04T17:59:30.074Z,24.17
2022-12-04T18:01:56.697Z,21.80
2022-12-04T18:04:23.560Z,23.43
2022-12-04T18:06:50.142Z,20.90
2022-12-04T18:09:17.202Z,20.37
2022-12-04T18:11:46.554Z,24.60
2022-12-04T18:14:18.695Z,21.30
2022-12-04T18:16:47.747Z,22.27
2022-12-04T18:19:14.935Z,23.60
2022-12-04T18:21:41.622Z,21.30
2022-12-04T18:24:08.926Z,20.40
2022-12-04T18:26:39.141Z,23.33
2022-12-04T18:29:08.998Z,27.57
2022-12-04T18:31:35.685Z,20.87
2022-12-04T18:34:04.853Z,20.57
2022-12-04T18:36:32.479Z,20.93
2022-12-04T18:39:02.104Z,20.30
2022-12-04T18:41:29.362Z,23.13
2022-12-04T18:43:57.267Z,21.17
2022-12-04T18:46:25.086Z,20.73
2022-12-04T18:48:58.833Z,22.47
2022-12-04T18:51:40.087Z,19.70
2022-12-04T18:54:10.628Z,22.27
2022-12-04T18:56:37.801Z,19.07
2022-12-04T18:59:08.084Z,19.80
2022-12-04T19:01:34.951Z,20.50
2022-12-04T19:04:06.180Z,21.00
2022-12-04T19:06:35.775Z,18.47
2022-12-04T19:09:05.814Z,25.10
2022-12-04T19:11:33.188Z,18.27
2022-12-04T19:14:01.245Z,17.70
2022-12-04T19:16:28.454Z,19.83
2022-12-04T19:18:55.855Z,21.23
2022-12-04T19:21:22.621Z,19.10
2022-12-04T19:23:55.016Z,20.70
2022-12-04T19:26:21.599Z,15.90
2022-12-04T19:28:48.227Z,15.90
2022-12-04T19:31:24.298Z,17.27
2022-12-04T19:33:52.070Z,15.90
2022-12-04T19:36:19.157Z,16.37
2022-12-04T19:38:46.746Z,16.53
2022-12-04T19:41:19.313Z,17.17
2022-12-04T19:43:48.269Z,16.50
2022-12-04T19:46:18.212Z,18.40
2022-12-04T19:48:47.322Z,17.40
2022-12-04T19:51:19.039Z,16.97
2022-12-04T19:53:46.827Z,16.87
2022-12-04T19:56:24.185Z,15.13
2022-12-04T19:58:56.177Z,13.43
2022-12-04T20:01:25.312Z,15.43
2022-12-04T20:03:52.850Z,14.70
2022-12-04T20:06:20.935Z,14.30
2022-12-04T20:08:52.851Z,12.20
2022-12-04T20:11:19.906Z,11.27
2022-12-04T20:13:48.560Z,11.07
2022-12-04T20:16:18.335Z,12.03
2022-12-04T20:18:45.700Z,13.40
2022-12-04T20:21:13.083Z,13.53
2022-12-04T20:23:50.593Z,13.20
2022-12-04T20:26:20.404Z,13.87
2022-12-04T20:28:47.321Z,12.60
2022-12-04T20:31:25.867Z,10.97
2022-12-04T20:33:54.333Z,10.63
2022-12-04T20:36:22.953Z,12.70
2022-12-04T20:38:52.373Z,12.10
2022-12-04T20:41:18.996Z,11.33
2022-12-04T20:43:47.374Z,11.27
2022-12-04T20:46:17.137Z,11.17
2022-12-04T20:48:48.332Z,12.13
2022-12-04T20:51:20.199Z,12.13
2022-12-04T20:53:47.729Z,11.83
2022-12-04T20:56:14.347Z,11.13
2022-12-04T20:58:41.025Z,11.77
2022-12-04T21:01:09.684Z,12.57
2022-12-04T21:03:36.725Z,13.33
2022-12-04T21:06:04.024Z,13.10
2022-12-04T21:08:49.322Z,12.80
2022-12-04T21:11:15.903Z,11.37
2022-12-04T21:14:01.288Z,12.33
2022-12-04T21:16:28.144Z,10.37
2022-12-04T21:18:54.765Z,10.87
2022-12-04T21:21:21.362Z,11.43
2022-12-04T21:23:48.021Z,10.37
2022-12-04T21:26:14.860Z,9.83
2022-12-04T21:28:42.459Z,12.10
2022-12-04T21:31:09.251Z,10.70
2022-12-04T21:33:35.852Z,11.37
2022-12-04T21:36:09.458Z,8.87
2022-12-04T21:38:37.770Z,8.30
2022-12-04T21:41:06.991Z,9.33
2022-12-04T21:43:35.723Z,7.50
2022-12-04T21:46:09.646Z,8.90
2022-12-04T21:48:37.167Z,7.67
2022-12-04T21:51:21.258Z,7.97
2022-12-04T21:53:54.893Z,9.87
2022-12-04T21:56:22.573Z,7.93
2022-12-04T21:58:49.362Z,6.93
2022-12-04T22:01:17.739Z,7.63
2022-12-04T22:03:44.455Z,7.23
2022-12-04T22:06:11.393Z,7.43
2022-12-04T22:08:39.900Z,8.63
2022-12-04T22:11:08.372Z,7.67
2022-12-04T22:13:38.749Z,7.53
2022-12-04T22:16:08.756Z,6.90
2022-12-04T22:18:35.939Z,8.07
2022-12-04T22:21:07.475Z,6.93
2022-12-04T22:23:34.761Z,8.43
2022-12-04T22:26:10.363Z,6.97
2022-12-04T22:28:37.440Z,6.37
2022-12-04T22:31:06.852Z,7.10
2022-12-04T22:33:33.517Z,5.63
2022-12-04T22:36:08.512Z,7.00
2022-12-04T22:38:52.408Z,6.53
2022-12-04T22:41:24.050Z,5.90
2022-12-04T22:43:51.047Z,6.93
2022-12-04T22:46:18.567Z,7.43
2022-12-04T22:48:45.273Z,7.93
2022-12-04T22:51:17.948Z,8.13
2022-12-04T22:53:50.233Z,7.97
2022-12-04T22:56:20.303Z,8.70
2022-12-04T22:58:47.219Z,8.37
2022-12-04T23:01:20.694Z,8.17
2022-12-04T23:03:48.757Z,8.03
2022-12-04T23:06:17.210Z,9.73
2022-12-04T23:08:44.943Z,8.13
2022-12-04T23:11:20.279Z,5.87
2022-12-04T23:13:51.951Z,5.33
2022-12-04T23:16:20.542Z,4.27
2022-12-04T23:18:47.921Z,5.33
2022-12-04T23:21:15.769Z,4.57
2022-12-04T23:23:44.064Z,4.77
2022-12-04T23:26:15.124Z,4.63
2022-12-04T23:28:42.396Z,4.33
2022-12-04T23:31:10.977Z,3.80
2022-12-04T23:33:39.431Z,4.43
2022-12-04T23:36:07.531Z,4.03
2022-12-04T23:38:35.534Z,4.80
2022-12-04T23:41:07.793Z,5.57
2022-12-04T23:43:35.295Z,5.13
2022-12-04T23:46:07.295Z,4.87
2022-12-04T23:48:37.352Z,5.00
2022-12-04T23:51:04.089Z,5.23
2022-12-04T23:53:30.749Z,6.23
2022-12-04T23:55:59.549Z,5.47
2022-12-04T23:58:26.590Z,6.13
